sensor_id;sensor_type;location;lat;lon;timestamp;temperature;humidity
21035;DHT22;10676;50.848;3.272;2024-03-17T00:01:03;10.20;99.90
21035;DHT22;10676;50.848;3.272;2024-03-17T00:03:30;10.20;99.90
21035;DHT22;10676;50.848;3.272;2024-03-17T00:06:00;10.20;99.90
21035;DHT22;10676;50.848;3.272;2024-03-17T00:08:26;10.10;99.90
21035;DHT22;10676;50.848;3.272;2024-03-17T00:10:55;10.10;99.90
21035;DHT22;10676;50.848;3.272;2024-03-17T00:13:21;10.10;99.90
21035;DHT22;10676;50.848;3.272;2024-03-17T00:15:48;10.10;99.90
21035;DHT22;10676;50.848;3.272;2024-03-17T00:18:13;10.10;99.90
21035;DHT22;10676;50.848;3.272;2024-03-17T00:20:40;10.10;99.90
21035;DHT22;10676;50.848;3.272;2024-03-17T00:23:06;10.10;99.90
21035;DHT22;10676;50.848;3.272;2024-03-17T00:25:32;10.10;99.90
21035;DHT22;10676;50.848;3.272;2024-03-17T00:27:59;10.10;99.90
21035;DHT22;10676;50.848;3.272;2024-03-17T00:30:25;10.10;99.90
21035;DHT22;10676;50.848;3.272;2024-03-17T00:32:51;10.20;99.90
21035;DHT22;10676;50.848;3.272;2024-03-17T00:35:16;10.20;99.90
21035;DHT22;10676;50.848;3.272;2024-03-17T00:37:49;10.20;99.90
21035;DHT22;10676;50.848;3.272;2024-03-17T00:40:18;10.30;99.90
21035;DHT22;10676;50.848;3.272;2024-03-17T00:42:44;10.30;99.90
21035;DHT22;10676;50.848;3.272;2024-03-17T00:45:13;10.30;99.90
21035;DHT22;10676;50.848;3.272;2024-03-17T00:47:38;10.30;99.90
21035;DHT22;10676;50.848;3.272;2024-03-17T00:50:05;10.30;99.90
21035;DHT22;10676;50.848;3.272;2024-03-17T00:52:32;10.30;99.90
21035;DHT22;10676;50.848;3.272;2024-03-17T00:54:58;10.30;99.90
21035;DHT22;10676;50.848;3.272;2024-03-17T00:57:24;10.30;99.90
21035;DHT22;10676;50.848;3.272;2024-03-17T00:59:50;10.30;99.90
21035;DHT22;10676;50.848;3.272;2024-03-17T01:02:17;10.30;99.90
21035;DHT22;10676;50.848;3.272;2024-03-17T01:04:44;10.30;99.90
21035;DHT22;10676;50.848;3.272;2024-03-17T01:07:10;10.30;99.90
21035;DHT22;10676;50.848;3.272;2024-03-17T01:09:36;10.20;99.90
21035;DHT22;10676;50.848;3.272;2024-03-17T01:12:02;10.20;99.90
21035;DHT22;10676;50.848;3.272;2024-03-17T01:14:29;10.20;99.90
21035;DHT22;10676;50.848;3.272;2024-03-17T01:16:55;10.20;99.90
21035;DHT22;10676;50.848;3.272;2024-03-17T01:19:22;10.20;99.90
21035;DHT22;10676;50.848;3.272;2024-03-17T01:21:47;10.20;99.90
21035;DHT22;10676;50.848;3.272;2024-03-17T01:24:13;10.20;99.90
21035;DHT22;10676;50.848;3.272;2024-03-17T01:26:39;10.30;99.90
21035;DHT22;10676;50.848;3.272;2024-03-17T01:29:05;10.20;99.90
21035;DHT22;10676;50.848;3.272;2024-03-17T01:31:30;10.30;99.90
21035;DHT22;10676;50.848;3.272;2024-03-17T01:33:56;10.30;99.90
21035;DHT22;10676;50.848;3.272;2024-03-17T01:36:22;10.30;99.90
21035;DHT22;10676;50.848;3.272;2024-03-17T01:38:48;10.30;99.90
21035;DHT22;10676;50.848;3.272;2024-03-17T01:41:14;10.30;99.90
21035;DHT22;10676;50.848;3.272;2024-03-17T01:43:40;10.30;99.90
21035;DHT22;10676;50.848;3.272;2024-03-17T01:46:06;10.20;99.90
21035;DHT22;10676;50.848;3.272;2024-03-17T01:48:32;10.20;99.90
21035;DHT22;10676;50.848;3.272;2024-03-17T01:50:59;10.10;99.90
21035;DHT22;10676;50.848;3.272;2024-03-17T01:53:25;9.90;99.90
21035;DHT22;10676;50.848;3.272;2024-03-17T01:55:53;9.80;99.90
21035;DHT22;10676;50.848;3.272;2024-03-17T01:58:25;9.60;99.90
21035;DHT22;10676;50.848;3.272;2024-03-17T02:00:51;9.50;99.90
21035;DHT22;10676;50.848;3.272;2024-03-17T02:03:17;9.30;99.90
21035;DHT22;10676;50.848;3.272;2024-03-17T02:05:44;9.20;99.90
21035;DHT22;10676;50.848;3.272;2024-03-17T02:08:10;9.10;99.90
21035;DHT22;10676;50.848;3.272;2024-03-17T02:10:40;8.90;99.90
21035;DHT22;10676;50.848;3.272;2024-03-17T02:13:06;8.90;99.90
21035;DHT22;10676;50.848;3.272;2024-03-17T02:15:32;8.70;99.90
21035;DHT22;10676;50.848;3.272;2024-03-17T02:17:58;8.70;99.90
21035;DHT22;10676;50.848;3.272;2024-03-17T02:20:24;8.70;99.90
21035;DHT22;10676;50.848;3.272;2024-03-17T02:23:10;8.70;99.90
21035;DHT22;10676;50.848;3.272;2024-03-17T02:25:35;8.70;99.90
21035;DHT22;10676;50.848;3.272;2024-03-17T02:28:02;8.80;99.90
21035;DHT22;10676;50.848;3.272;2024-03-17T02:30:27;8.80;99.90
21035;DHT22;10676;50.848;3.272;2024-03-17T02:32:54;8.90;99.90
21035;DHT22;10676;50.848;3.272;2024-03-17T02:35:23;8.90;99.90
21035;DHT22;10676;50.848;3.272;2024-03-17T02:37:49;8.90;99.90
21035;DHT22;10676;50.848;3.272;2024-03-17T02:40:16;8.90;99.90
21035;DHT22;10676;50.848;3.272;2024-03-17T02:42:43;8.80;99.90
21035;DHT22;10676;50.848;3.272;2024-03-17T02:45:13;8.80;99.90
21035;DHT22;10676;50.848;3.272;2024-03-17T02:47:39;8.80;99.90
21035;DHT22;10676;50.848;3.272;2024-03-17T02:50:05;8.70;99.90
21035;DHT22;10676;50.848;3.272;2024-03-17T02:52:31;8.60;99.90
21035;DHT22;10676;50.848;3.272;2024-03-17T02:54:57;8.50;99.90
21035;DHT22;10676;50.848;3.272;2024-03-17T02:57:23;8.40;99.90
21035;DHT22;10676;50.848;3.272;2024-03-17T02:59:55;8.40;99.90
21035;DHT22;10676;50.848;3.272;2024-03-17T03:02:20;8.30;99.90
21035;DHT22;10676;50.848;3.272;2024-03-17T03:04:46;8.20;99.90
21035;DHT22;10676;50.848;3.272;2024-03-17T03:07:12;8.20;99.90
21035;DHT22;10676;50.848;3.272;2024-03-17T03:09:38;8.10;99.90
21035;DHT22;10676;50.848;3.272;2024-03-17T03:12:04;8.00;99.90
21035;DHT22;10676;50.848;3.272;2024-03-17T03:14:30;8.00;99.90
21035;DHT22;10676;50.848;3.272;2024-03-17T03:16:57;7.90;99.90
21035;DHT22;10676;50.848;3.272;2024-03-17T03:19:24;7.80;99.90
21035;DHT22;10676;50.848;3.272;2024-03-17T03:21:49;7.80;99.90
21035;DHT22;10676;50.848;3.272;2024-03-17T03:24:16;7.80;99.90
21035;DHT22;10676;50.848;3.272;2024-03-17T03:26:42;7.70;99.90
21035;DHT22;10676;50.848;3.272;2024-03-17T03:29:09;7.70;99.90
21035;DHT22;10676;50.848;3.272;2024-03-17T03:31:36;7.70;99.90
21035;DHT22;10676;50.848;3.272;2024-03-17T03:34:04;7.60;99.90
21035;DHT22;10676;50.848;3.272;2024-03-17T03:36:33;7.70;99.90
21035;DHT22;10676;50.848;3.272;2024-03-17T03:38:59;7.60;99.90
21035;DHT22;10676;50.848;3.272;2024-03-17T03:41:25;7.60;99.90
21035;DHT22;10676;50.848;3.272;2024-03-17T03:43:51;7.60;99.90
21035;DHT22;10676;50.848;3.272;2024-03-17T03:46:17;7.60;99.90
21035;DHT22;10676;50.848;3.272;2024-03-17T03:48:42;7.60;99.90
21035;DHT22;10676;50.848;3.272;2024-03-17T03:51:09;7.70;99.90
21035;DHT22;10676;50.848;3.272;2024-03-17T03:53:36;7.80;99.90
21035;DHT22;10676;50.848;3.272;2024-03-17T03:56:04;7.80;99.90
21035;DHT22;10676;50.848;3.272;2024-03-17T03:58:34;7.90;99.90
21035;DHT22;10676;50.848;3.272;2024-03-17T04:01:06;7.90;99.90
21035;DHT22;10676;50.848;3.272;2024-03-17T04:03:35;8.00;99.90
21035;DHT22;10676;50.848;3.272;2024-03-17T04:06:03;8.00;99.90
21035;DHT22;10676;50.848;3.272;2024-03-17T04:08:30;8.00;99.90
21035;DHT22;10676;50.848;3.272;2024-03-17T04:10:56;8.00;99.90
21035;DHT22;10676;50.848;3.272;2024-03-17T04:13:22;8.10;99.90
21035;DHT22;10676;50.848;3.272;2024-03-17T04:15:48;8.10;99.90
21035;DHT22;10676;50.848;3.272;2024-03-17T04:18:14;8.10;99.90
21035;DHT22;10676;50.848;3.272;2024-03-17T04:20:41;8.10;99.90
21035;DHT22;10676;50.848;3.272;2024-03-17T04:23:07;8.10;99.90
21035;DHT22;10676;50.848;3.272;2024-03-17T04:25:33;8.00;99.90
21035;DHT22;10676;50.848;3.272;2024-03-17T04:27:59;8.20;99.90
21035;DHT22;10676;50.848;3.272;2024-03-17T04:30:24;8.20;99.90
21035;DHT22;10676;50.848;3.272;2024-03-17T04:32:50;8.20;99.90
21035;DHT22;10676;50.848;3.272;2024-03-17T04:35:17;8.20;99.90
21035;DHT22;10676;50.848;3.272;2024-03-17T04:37:43;8.20;99.90
21035;DHT22;10676;50.848;3.272;2024-03-17T04:40:09;8.40;99.90
21035;DHT22;10676;50.848;3.272;2024-03-17T04:42:35;8.40;99.90
21035;DHT22;10676;50.848;3.272;2024-03-17T04:45:01;8.40;99.90
21035;DHT22;10676;50.848;3.272;2024-03-17T04:47:26;8.50;99.90
21035;DHT22;10676;50.848;3.272;2024-03-17T04:49:52;8.50;99.90
21035;DHT22;10676;50.848;3.272;2024-03-17T04:52:18;8.60;99.90
21035;DHT22;10676;50.848;3.272;2024-03-17T04:54:44;8.60;99.90
21035;DHT22;10676;50.848;3.272;2024-03-17T04:57:09;8.60;99.90
21035;DHT22;10676;50.848;3.272;2024-03-17T04:59:35;8.70;99.90
21035;DHT22;10676;50.848;3.272;2024-03-17T05:02:02;8.80;99.90
21035;DHT22;10676;50.848;3.272;2024-03-17T05:04:28;8.80;99.90
21035;DHT22;10676;50.848;3.272;2024-03-17T05:06:54;8.80;99.90
21035;DHT22;10676;50.848;3.272;2024-03-17T05:09:20;8.90;99.90
21035;DHT22;10676;50.848;3.272;2024-03-17T05:11:46;9.00;99.90
21035;DHT22;10676;50.848;3.272;2024-03-17T05:14:13;9.10;99.90
21035;DHT22;10676;50.848;3.272;2024-03-17T05:16:39;9.20;99.90
21035;DHT22;10676;50.848;3.272;2024-03-17T05:19:04;9.30;99.90
21035;DHT22;10676;50.848;3.272;2024-03-17T05:21:30;9.40;99.90
21035;DHT22;10676;50.848;3.272;2024-03-17T05:24:01;9.60;99.90
21035;DHT22;10676;50.848;3.272;2024-03-17T05:26:28;9.60;99.90
21035;DHT22;10676;50.848;3.272;2024-03-17T05:28:53;9.70;99.90
21035;DHT22;10676;50.848;3.272;2024-03-17T05:31:20;9.80;99.90
21035;DHT22;10676;50.848;3.272;2024-03-17T05:33:47;9.90;99.90
21035;DHT22;10676;50.848;3.272;2024-03-17T05:36:13;10.00;99.90
21035;DHT22;10676;50.848;3.272;2024-03-17T05:38:39;10.10;99.90
21035;DHT22;10676;50.848;3.272;2024-03-17T05:41:08;10.20;99.90
21035;DHT22;10676;50.848;3.272;2024-03-17T05:43:36;10.20;99.90
21035;DHT22;10676;50.848;3.272;2024-03-17T05:46:03;10.30;99.90
21035;DHT22;10676;50.848;3.272;2024-03-17T05:48:33;10.40;99.90
21035;DHT22;10676;50.848;3.272;2024-03-17T05:51:01;10.40;99.90
21035;DHT22;10676;50.848;3.272;2024-03-17T05:53:28;10.50;99.90
21035;DHT22;10676;50.848;3.272;2024-03-17T05:55:53;10.60;99.90
21035;DHT22;10676;50.848;3.272;2024-03-17T05:58:20;10.60;99.90
21035;DHT22;10676;50.848;3.272;2024-03-17T06:00:46;10.60;99.90
21035;DHT22;10676;50.848;3.272;2024-03-17T06:03:12;10.70;99.90
21035;DHT22;10676;50.848;3.272;2024-03-17T06:05:39;10.70;99.90
21035;DHT22;10676;50.848;3.272;2024-03-17T06:08:06;10.80;99.90
21035;DHT22;10676;50.848;3.272;2024-03-17T06:10:35;10.80;99.90
21035;DHT22;10676;50.848;3.272;2024-03-17T06:13:01;10.90;99.90
21035;DHT22;10676;50.848;3.272;2024-03-17T06:15:27;10.90;99.90
21035;DHT22;10676;50.848;3.272;2024-03-17T06:17:53;11.00;99.90
21035;DHT22;10676;50.848;3.272;2024-03-17T06:20:23;11.00;99.90
21035;DHT22;10676;50.848;3.272;2024-03-17T06:22:50;11.00;99.90
21035;DHT22;10676;50.848;3.272;2024-03-17T06:25:16;11.10;99.90
21035;DHT22;10676;50.848;3.272;2024-03-17T06:27:42;11.10;99.90
21035;DHT22;10676;50.848;3.272;2024-03-17T06:30:17;11.10;99.90
21035;DHT22;10676;50.848;3.272;2024-03-17T06:32:45;11.20;99.90
21035;DHT22;10676;50.848;3.272;2024-03-17T06:35:12;11.20;99.90
21035;DHT22;10676;50.848;3.272;2024-03-17T06:37:41;11.30;99.90
21035;DHT22;10676;50.848;3.272;2024-03-17T06:40:08;11.30;99.90
21035;DHT22;10676;50.848;3.272;2024-03-17T06:42:37;11.40;99.90
21035;DHT22;10676;50.848;3.272;2024-03-17T06:45:03;11.40;99.90
21035;DHT22;10676;50.848;3.272;2024-03-17T06:47:29;11.40;99.90
21035;DHT22;10676;50.848;3.272;2024-03-17T06:49:55;11.40;99.90
21035;DHT22;10676;50.848;3.272;2024-03-17T06:52:20;11.40;99.90
21035;DHT22;10676;50.848;3.272;2024-03-17T06:54:47;11.40;99.90
21035;DHT22;10676;50.848;3.272;2024-03-17T06:57:16;11.30;99.90
21035;DHT22;10676;50.848;3.272;2024-03-17T06:59:41;11.30;99.90
21035;DHT22;10676;50.848;3.272;2024-03-17T07:02:07;11.20;99.90
21035;DHT22;10676;50.848;3.272;2024-03-17T07:04:36;11.20;99.90
21035;DHT22;10676;50.848;3.272;2024-03-17T07:07:02;11.20;99.90
21035;DHT22;10676;50.848;3.272;2024-03-17T07:09:28;11.20;99.90
21035;DHT22;10676;50.848;3.272;2024-03-17T07:11:53;11.20;99.90
21035;DHT22;10676;50.848;3.272;2024-03-17T07:14:19;11.10;99.90
21035;DHT22;10676;50.848;3.272;2024-03-17T07:16:44;11.20;99.90
21035;DHT22;10676;50.848;3.272;2024-03-17T07:19:10;11.20;99.90
21035;DHT22;10676;50.848;3.272;2024-03-17T07:21:36;11.20;99.90
21035;DHT22;10676;50.848;3.272;2024-03-17T07:24:02;11.30;99.90
21035;DHT22;10676;50.848;3.272;2024-03-17T07:26:30;11.40;99.90
21035;DHT22;10676;50.848;3.272;2024-03-17T07:28:56;11.40;99.90
21035;DHT22;10676;50.848;3.272;2024-03-17T07:31:21;11.50;99.90
21035;DHT22;10676;50.848;3.272;2024-03-17T07:33:47;11.50;99.90
21035;DHT22;10676;50.848;3.272;2024-03-17T07:36:13;11.60;99.90
21035;DHT22;10676;50.848;3.272;2024-03-17T07:38:39;11.60;99.90
21035;DHT22;10676;50.848;3.272;2024-03-17T07:41:06;11.60;99.90
21035;DHT22;10676;50.848;3.272;2024-03-17T07:43:33;11.70;99.90
21035;DHT22;10676;50.848;3.272;2024-03-17T07:48:26;12.00;99.90
21035;DHT22;10676;50.848;3.272;2024-03-17T07:50:56;12.10;99.90
21035;DHT22;10676;50.848;3.272;2024-03-17T07:53:22;12.20;99.90
21035;DHT22;10676;50.848;3.272;2024-03-17T07:55:57;12.20;99.90
21035;DHT22;10676;50.848;3.272;2024-03-17T07:58:24;12.30;99.90
21035;DHT22;10676;50.848;3.272;2024-03-17T08:00:51;12.20;99.90
21035;DHT22;10676;50.848;3.272;2024-03-17T08:03:18;12.20;99.90
21035;DHT22;10676;50.848;3.272;2024-03-17T08:05:50;12.10;99.90
21035;DHT22;10676;50.848;3.272;2024-03-17T08:08:18;12.00;99.90
21035;DHT22;10676;50.848;3.272;2024-03-17T08:10:44;12.00;99.90
21035;DHT22;10676;50.848;3.272;2024-03-17T08:13:09;11.90;99.90
21035;DHT22;10676;50.848;3.272;2024-03-17T08:15:35;12.00;99.90
21035;DHT22;10676;50.848;3.272;2024-03-17T08:18:02;11.90;99.90
21035;DHT22;10676;50.848;3.272;2024-03-17T08:20:29;11.90;99.90
21035;DHT22;10676;50.848;3.272;2024-03-17T08:22:55;12.00;99.90
21035;DHT22;10676;50.848;3.272;2024-03-17T08:25:21;12.00;99.90
21035;DHT22;10676;50.848;3.272;2024-03-17T08:27:47;12.00;99.90
21035;DHT22;10676;50.848;3.272;2024-03-17T08:30:13;12.00;99.90
21035;DHT22;10676;50.848;3.272;2024-03-17T08:32:39;12.00;99.90
21035;DHT22;10676;50.848;3.272;2024-03-17T08:35:06;12.00;99.90
21035;DHT22;10676;50.848;3.272;2024-03-17T08:37:32;12.10;99.90
21035;DHT22;10676;50.848;3.272;2024-03-17T08:39:58;12.10;99.90
21035;DHT22;10676;50.848;3.272;2024-03-17T08:42:23;12.10;99.90
21035;DHT22;10676;50.848;3.272;2024-03-17T08:44:49;12.20;99.90
21035;DHT22;10676;50.848;3.272;2024-03-17T08:47:15;12.30;99.90
21035;DHT22;10676;50.848;3.272;2024-03-17T08:49:41;12.40;99.90
21035;DHT22;10676;50.848;3.272;2024-03-17T08:52:06;12.50;99.90
21035;DHT22;10676;50.848;3.272;2024-03-17T08:54:32;12.60;99.90
21035;DHT22;10676;50.848;3.272;2024-03-17T08:56:58;12.60;99.90
21035;DHT22;10676;50.848;3.272;2024-03-17T08:59:24;12.70;99.90
21035;DHT22;10676;50.848;3.272;2024-03-17T09:01:50;12.80;99.90
21035;DHT22;10676;50.848;3.272;2024-03-17T09:04:15;12.80;99.90
21035;DHT22;10676;50.848;3.272;2024-03-17T09:06:41;12.90;99.90
21035;DHT22;10676;50.848;3.272;2024-03-17T09:09:07;12.90;99.90
21035;DHT22;10676;50.848;3.272;2024-03-17T09:11:33;12.90;99.90
21035;DHT22;10676;50.848;3.272;2024-03-17T09:13:59;12.90;99.90
21035;DHT22;10676;50.848;3.272;2024-03-17T09:16:25;12.90;99.90
21035;DHT22;10676;50.848;3.272;2024-03-17T09:18:54;12.90;99.90
21035;DHT22;10676;50.848;3.272;2024-03-17T09:21:19;13.00;99.90
21035;DHT22;10676;50.848;3.272;2024-03-17T09:23:45;13.10;99.90
21035;DHT22;10676;50.848;3.272;2024-03-17T09:26:11;13.20;99.90
21035;DHT22;10676;50.848;3.272;2024-03-17T09:28:39;13.30;99.90
21035;DHT22;10676;50.848;3.272;2024-03-17T09:31:05;13.40;99.90
21035;DHT22;10676;50.848;3.272;2024-03-17T09:33:33;13.40;99.90
21035;DHT22;10676;50.848;3.272;2024-03-17T09:36:06;13.50;99.90
21035;DHT22;10676;50.848;3.272;2024-03-17T09:38:33;13.60;99.90
21035;DHT22;10676;50.848;3.272;2024-03-17T09:41:00;13.70;99.90
21035;DHT22;10676;50.848;3.272;2024-03-17T09:43:32;13.80;99.90
21035;DHT22;10676;50.848;3.272;2024-03-17T09:45:58;13.90;99.90
21035;DHT22;10676;50.848;3.272;2024-03-17T09:48:25;13.90;99.90
21035;DHT22;10676;50.848;3.272;2024-03-17T09:50:57;14.00;99.90
21035;DHT22;10676;50.848;3.272;2024-03-17T09:53:28;14.00;99.90
21035;DHT22;10676;50.848;3.272;2024-03-17T09:55:59;14.20;99.90
21035;DHT22;10676;50.848;3.272;2024-03-17T09:58:25;14.40;99.90
21035;DHT22;10676;50.848;3.272;2024-03-17T10:00:51;14.50;99.90
21035;DHT22;10676;50.848;3.272;2024-03-17T10:06:05;14.90;99.90
21035;DHT22;10676;50.848;3.272;2024-03-17T10:08:31;15.10;99.90
21035;DHT22;10676;50.848;3.272;2024-03-17T10:10:59;15.20;99.90
21035;DHT22;10676;50.848;3.272;2024-03-17T10:13:25;15.30;99.90
21035;DHT22;10676;50.848;3.272;2024-03-17T10:15:51;15.40;99.90
21035;DHT22;10676;50.848;3.272;2024-03-17T10:18:23;15.40;99.90
21035;DHT22;10676;50.848;3.272;2024-03-17T10:20:51;15.40;99.90
21035;DHT22;10676;50.848;3.272;2024-03-17T10:23:22;15.40;99.90
21035;DHT22;10676;50.848;3.272;2024-03-17T10:25:47;15.50;99.90
21035;DHT22;10676;50.848;3.272;2024-03-17T10:28:14;15.60;99.90
21035;DHT22;10676;50.848;3.272;2024-03-17T10:30:41;15.70;99.90
21035;DHT22;10676;50.848;3.272;2024-03-17T10:33:19;15.80;99.90
21035;DHT22;10676;50.848;3.272;2024-03-17T10:35:48;15.90;99.90
21035;DHT22;10676;50.848;3.272;2024-03-17T10:38:14;16.00;99.90
21035;DHT22;10676;50.848;3.272;2024-03-17T10:40:41;16.10;99.90
21035;DHT22;10676;50.848;3.272;2024-03-17T10:43:07;16.30;99.90
21035;DHT22;10676;50.848;3.272;2024-03-17T10:45:33;16.50;99.90
21035;DHT22;10676;50.848;3.272;2024-03-17T10:48:07;16.80;99.90
21035;DHT22;10676;50.848;3.272;2024-03-17T10:50:37;17.20;99.90
21035;DHT22;10676;50.848;3.272;2024-03-17T10:53:07;17.70;99.90
21035;DHT22;10676;50.848;3.272;2024-03-17T10:58:11;18.60;99.90
21035;DHT22;10676;50.848;3.272;2024-03-17T11:00:42;19.00;99.90
21035;DHT22;10676;50.848;3.272;2024-03-17T11:03:09;19.40;99.90
21035;DHT22;10676;50.848;3.272;2024-03-17T11:05:37;19.80;99.90
21035;DHT22;10676;50.848;3.272;2024-03-17T11:08:03;20.10;99.90
21035;DHT22;10676;50.848;3.272;2024-03-17T11:10:31;20.40;99.90
21035;DHT22;10676;50.848;3.272;2024-03-17T11:12:58;20.70;99.90
21035;DHT22;10676;50.848;3.272;2024-03-17T11:23:41;21.80;99.90
21035;DHT22;10676;50.848;3.272;2024-03-17T11:26:08;21.80;99.90
21035;DHT22;10676;50.848;3.272;2024-03-17T11:31:34;22.00;99.90
21035;DHT22;10676;50.848;3.272;2024-03-17T11:34:04;22.20;99.90
21035;DHT22;10676;50.848;3.272;2024-03-17T11:36:35;22.40;99.90
21035;DHT22;10676;50.848;3.272;2024-03-17T11:39:05;22.60;99.90
21035;DHT22;10676;50.848;3.272;2024-03-17T11:41:48;23.00;99.90
21035;DHT22;10676;50.848;3.272;2024-03-17T11:44:24;23.50;99.90
21035;DHT22;10676;50.848;3.272;2024-03-17T11:47:02;23.80;99.90
21035;DHT22;10676;50.848;3.272;2024-03-17T11:49:41;23.90;99.90
21035;DHT22;10676;50.848;3.272;2024-03-17T11:52:12;23.80;99.90
21035;DHT22;10676;50.848;3.272;2024-03-17T11:54:43;23.70;99.90
21035;DHT22;10676;50.848;3.272;2024-03-17T11:57:11;23.50;99.90
21035;DHT22;10676;50.848;3.272;2024-03-17T11:59:37;23.30;99.90
21035;DHT22;10676;50.848;3.272;2024-03-17T12:02:19;23.10;99.90
21035;DHT22;10676;50.848;3.272;2024-03-17T12:04:45;22.90;99.90
21035;DHT22;10676;50.848;3.272;2024-03-17T12:07:16;22.60;99.90
21035;DHT22;10676;50.848;3.272;2024-03-17T12:09:44;22.40;99.90
21035;DHT22;10676;50.848;3.272;2024-03-17T12:14:37;22.30;99.90
21035;DHT22;10676;50.848;3.272;2024-03-17T12:17:04;22.30;99.90
21035;DHT22;10676;50.848;3.272;2024-03-17T12:19:30;22.30;99.90
21035;DHT22;10676;50.848;3.272;2024-03-17T12:21:59;22.40;99.90
21035;DHT22;10676;50.848;3.272;2024-03-17T12:24:30;22.40;99.90
21035;DHT22;10676;50.848;3.272;2024-03-17T12:26:57;22.40;99.90
21035;DHT22;10676;50.848;3.272;2024-03-17T12:31:56;22.20;99.90
21035;DHT22;10676;50.848;3.272;2024-03-17T12:34:25;22.10;99.90
21035;DHT22;10676;50.848;3.272;2024-03-17T12:36:52;21.90;99.90
21035;DHT22;10676;50.848;3.272;2024-03-17T12:39:30;21.70;99.90
21035;DHT22;10676;50.848;3.272;2024-03-17T12:42:14;21.40;99.90
21035;DHT22;10676;50.848;3.272;2024-03-17T12:44:48;21.20;99.90
21035;DHT22;10676;50.848;3.272;2024-03-17T12:47:18;20.90;99.90
21035;DHT22;10676;50.848;3.272;2024-03-17T12:49:52;20.50;99.90
21035;DHT22;10676;50.848;3.272;2024-03-17T12:52:30;20.10;99.90
21035;DHT22;10676;50.848;3.272;2024-03-17T12:57:42;19.70;99.90
21035;DHT22;10676;50.848;3.272;2024-03-17T13:00:27;19.60;99.90
21035;DHT22;10676;50.848;3.272;2024-03-17T13:03:03;19.50;99.90
21035;DHT22;10676;50.848;3.272;2024-03-17T13:05:30;19.40;99.90
21035;DHT22;10676;50.848;3.272;2024-03-17T13:07:56;19.30;99.90
21035;DHT22;10676;50.848;3.272;2024-03-17T13:10:27;19.20;99.90
21035;DHT22;10676;50.848;3.272;2024-03-17T13:13:04;19.10;99.90
21035;DHT22;10676;50.848;3.272;2024-03-17T13:15:33;18.90;99.90
21035;DHT22;10676;50.848;3.272;2024-03-17T13:18:01;18.70;99.90
21035;DHT22;10676;50.848;3.272;2024-03-17T13:20:27;18.60;99.90
21035;DHT22;10676;50.848;3.272;2024-03-17T13:22:53;18.50;99.90
21035;DHT22;10676;50.848;3.272;2024-03-17T13:25:21;18.40;99.90
21035;DHT22;10676;50.848;3.272;2024-03-17T13:27:49;18.30;99.90
21035;DHT22;10676;50.848;3.272;2024-03-17T13:30:17;18.20;99.90
21035;DHT22;10676;50.848;3.272;2024-03-17T13:32:43;18.30;99.90
21035;DHT22;10676;50.848;3.272;2024-03-17T13:35:20;18.40;99.90
21035;DHT22;10676;50.848;3.272;2024-03-17T13:37:48;18.60;99.90
21035;DHT22;10676;50.848;3.272;2024-03-17T13:40:15;18.70;99.90
21035;DHT22;10676;50.848;3.272;2024-03-17T13:42:49;18.80;99.90
21035;DHT22;10676;50.848;3.272;2024-03-17T13:45:15;18.90;99.90
21035;DHT22;10676;50.848;3.272;2024-03-17T13:47:46;19.00;99.90
21035;DHT22;10676;50.848;3.272;2024-03-17T13:50:12;19.00;99.90
21035;DHT22;10676;50.848;3.272;2024-03-17T13:52:43;19.00;99.90
21035;DHT22;10676;50.848;3.272;2024-03-17T13:55:15;19.00;99.90
21035;DHT22;10676;50.848;3.272;2024-03-17T13:57:46;19.10;99.90
21035;DHT22;10676;50.848;3.272;2024-03-17T14:00:13;19.10;99.90
21035;DHT22;10676;50.848;3.272;2024-03-17T14:02:46;19.20;99.90
21035;DHT22;10676;50.848;3.272;2024-03-17T14:05:14;19.20;99.90
21035;DHT22;10676;50.848;3.272;2024-03-17T14:07:40;19.20;99.90
21035;DHT22;10676;50.848;3.272;2024-03-17T14:10:07;19.00;99.90
21035;DHT22;10676;50.848;3.272;2024-03-17T14:12:34;18.60;99.90
21035;DHT22;10676;50.848;3.272;2024-03-17T14:15:00;18.20;99.90
21035;DHT22;10676;50.848;3.272;2024-03-17T14:17:26;17.80;99.90
21035;DHT22;10676;50.848;3.272;2024-03-17T14:19:52;17.50;99.90
21035;DHT22;10676;50.848;3.272;2024-03-17T14:22:18;17.30;99.90
21035;DHT22;10676;50.848;3.272;2024-03-17T14:24:44;17.10;99.90
21035;DHT22;10676;50.848;3.272;2024-03-17T14:27:12;16.90;99.90
21035;DHT22;10676;50.848;3.272;2024-03-17T14:29:38;16.70;99.90
21035;DHT22;10676;50.848;3.272;2024-03-17T14:32:04;16.60;99.90
21035;DHT22;10676;50.848;3.272;2024-03-17T14:34:30;16.50;99.90
21035;DHT22;10676;50.848;3.272;2024-03-17T14:37:02;16.40;99.90
21035;DHT22;10676;50.848;3.272;2024-03-17T14:39:28;16.40;99.90
21035;DHT22;10676;50.848;3.272;2024-03-17T14:41:54;16.30;99.90
21035;DHT22;10676;50.848;3.272;2024-03-17T14:44:20;16.20;99.90
21035;DHT22;10676;50.848;3.272;2024-03-17T14:46:46;16.10;99.90
21035;DHT22;10676;50.848;3.272;2024-03-17T14:49:12;16.10;99.90
21035;DHT22;10676;50.848;3.272;2024-03-17T14:51:37;16.00;99.90
21035;DHT22;10676;50.848;3.272;2024-03-17T14:54:03;15.90;99.90
21035;DHT22;10676;50.848;3.272;2024-03-17T14:56:31;15.80;99.90
21035;DHT22;10676;50.848;3.272;2024-03-17T14:58:56;15.80;99.90
21035;DHT22;10676;50.848;3.272;2024-03-17T15:01:22;15.80;99.90
21035;DHT22;10676;50.848;3.272;2024-03-17T15:03:48;15.80;99.90
21035;DHT22;10676;50.848;3.272;2024-03-17T15:06:15;15.70;99.90
21035;DHT22;10676;50.848;3.272;2024-03-17T15:08:44;15.70;99.90
21035;DHT22;10676;50.848;3.272;2024-03-17T15:11:10;15.70;99.90
21035;DHT22;10676;50.848;3.272;2024-03-17T15:13:36;15.70;99.90
21035;DHT22;10676;50.848;3.272;2024-03-17T15:16:05;15.60;99.90
21035;DHT22;10676;50.848;3.272;2024-03-17T15:18:34;15.60;99.90
21035;DHT22;10676;50.848;3.272;2024-03-17T15:21:03;15.60;99.90
21035;DHT22;10676;50.848;3.272;2024-03-17T15:23:32;15.60;99.90
21035;DHT22;10676;50.848;3.272;2024-03-17T15:26:05;15.60;99.90
21035;DHT22;10676;50.848;3.272;2024-03-17T15:28:36;15.60;99.90
21035;DHT22;10676;50.848;3.272;2024-03-17T15:31:10;15.50;99.90
21035;DHT22;10676;50.848;3.272;2024-03-17T15:33:38;15.50;99.90
21035;DHT22;10676;50.848;3.272;2024-03-17T15:36:07;15.40;99.90
21035;DHT22;10676;50.848;3.272;2024-03-17T15:38:34;15.40;99.90
21035;DHT22;10676;50.848;3.272;2024-03-17T15:41:03;15.30;99.90
21035;DHT22;10676;50.848;3.272;2024-03-17T15:43:32;15.30;99.90
21035;DHT22;10676;50.848;3.272;2024-03-17T15:45:59;15.30;99.90
21035;DHT22;10676;50.848;3.272;2024-03-17T15:48:25;15.20;99.90
21035;DHT22;10676;50.848;3.272;2024-03-17T15:50:58;15.20;99.90
21035;DHT22;10676;50.848;3.272;2024-03-17T15:53:24;15.10;99.90
21035;DHT22;10676;50.848;3.272;2024-03-17T15:55:55;15.10;99.90
21035;DHT22;10676;50.848;3.272;2024-03-17T15:58:23;15.00;99.90
21035;DHT22;10676;50.848;3.272;2024-03-17T16:00:48;15.00;99.90
21035;DHT22;10676;50.848;3.272;2024-03-17T16:03:14;14.90;99.90